createdAt,value
2019-02-18T00:05:42.751Z,4.98
2019-02-18T00:19:34.372Z,4.92
2019-02-18T00:22:04.680Z,4.93
2019-02-18T00:24:34.953Z,4.94
2019-02-18T00:35:44.628Z,4.85
2019-02-18T00:38:53.709Z,4.86
2019-02-18T00:41:42.888Z,4.83
2019-02-18T00:44:13.669Z,4.79
2019-02-18T00:47:14.744Z,4.78
2019-02-18T00:49:45.498Z,4.71
2019-02-18T00:55:56.332Z,4.68
2019-02-18T01:04:06.732Z,4.60
2019-02-18T01:07:16.076Z,4.58
2019-02-18T01:10:18.327Z,4.58
2019-02-18T01:12:49.164Z,4.53
2019-02-18T01:15:58.291Z,4.49
2019-02-18T01:18:47.274Z,4.45
2019-02-18T01:21:56.332Z,4.41
2019-02-18T01:25:05.472Z,4.38
2019-02-18T01:27:54.628Z,4.37
2019-02-18T01:30:55.353Z,4.32
2019-02-18T01:33:36.638Z,4.29
2019-02-18T01:36:07.492Z,4.26
2019-02-18T01:38:38.059Z,4.25
2019-02-18T01:41:39.225Z,4.22
2019-02-18T01:44:20.940Z,4.21
2019-02-18T01:47:30.082Z,4.19
2019-02-18T02:10:26.797Z,3.89
2019-02-18T02:13:35.925Z,3.89
2019-02-18T02:16:49.619Z,3.88
2019-02-18T02:25:01.232Z,3.79
2019-02-18T02:28:02.223Z,3.79
2019-02-18T02:30:42.644Z,3.81
2019-02-18T02:33:43.016Z,3.81
2019-02-18T02:36:43.850Z,3.78
2019-02-18T02:39:44.352Z,3.75
2019-02-18T02:42:33.471Z,3.76
2019-02-18T02:45:42.562Z,3.73
2019-02-18T02:48:31.570Z,3.70
2019-02-18T02:51:40.662Z,3.66
2019-02-18T02:57:12.550Z,3.63
2019-02-18T03:00:21.738Z,3.63
2019-02-18T03:06:23.199Z,3.62
2019-02-18T03:09:23.521Z,3.64
2019-02-18T03:14:51.586Z,3.76
2019-02-18T03:26:23.933Z,3.92
2019-02-18T03:40:35.709Z,3.89
2019-02-18T03:46:08.920Z,3.86
2019-02-18T03:48:39.524Z,3.84
2019-02-18T03:54:09.742Z,3.77
2019-02-18T03:57:18.994Z,3.73
2019-02-18T04:00:09.731Z,3.68
2019-02-18T04:03:18.998Z,3.64
2019-02-18T04:05:49.404Z,3.62
2019-02-18T04:08:43.067Z,3.58
2019-02-18T04:14:13.269Z,3.55
2019-02-18T04:17:02.380Z,3.55
2019-02-18T04:19:32.892Z,3.52
2019-02-18T04:22:23.277Z,3.47
2019-02-18T04:25:12.338Z,3.45
2019-02-18T04:28:21.426Z,3.48
2019-02-18T04:30:51.899Z,3.46
2019-02-18T04:33:22.444Z,3.44
2019-02-18T04:47:41.978Z,3.48
2019-02-18T04:50:13.018Z,3.56
2019-02-18T04:56:14.932Z,3.75
2019-02-18T04:58:56.921Z,3.83
2019-02-18T05:01:29.103Z,3.85
2019-02-18T05:04:38.203Z,3.86
2019-02-18T05:07:47.278Z,3.88
2019-02-18T05:10:43.116Z,3.84
2019-02-18T05:13:52.420Z,3.25
2019-02-18T05:17:01.532Z,3.29
2019-02-18T05:19:52.029Z,3.87
2019-02-18T05:29:11.430Z,3.87
2019-02-18T05:31:41.806Z,3.86
2019-02-18T05:34:12.072Z,3.89
2019-02-18T05:36:42.351Z,3.93
2019-02-18T05:39:17.830Z,3.98
2019-02-18T05:52:51.585Z,3.50
2019-02-18T05:58:02.507Z,4.07
2019-02-18T06:00:53.008Z,4.10
2019-02-18T06:06:24.431Z,4.07
2019-02-18T06:08:54.679Z,4.05
2019-02-18T06:11:44.273Z,4.06
2019-02-18T06:14:14.947Z,4.08
2019-02-18T06:16:45.535Z,4.05
2019-02-18T06:19:17.112Z,4.06
2019-02-18T06:24:48.762Z,4.00
2019-02-18T06:27:37.998Z,3.98
2019-02-18T06:30:28.433Z,3.98
2019-02-18T06:33:18.015Z,3.97
2019-02-18T06:42:11.645Z,3.87
2019-02-18T06:45:12.566Z,3.86
2019-02-18T06:48:13.407Z,3.85
2019-02-18T06:50:55.438Z,3.90
2019-02-18T07:00:13.909Z,4.00
2019-02-18T07:03:03.726Z,4.04
2019-02-18T07:05:44.168Z,4.09
2019-02-18T07:08:32.058Z,4.11
2019-02-18T07:11:39.734Z,4.14
2019-02-18T07:14:10.257Z,4.15
2019-02-18T07:16:40.602Z,4.18
2019-02-18T07:19:11.333Z,4.23
2019-02-18T07:21:41.667Z,4.33
2019-02-18T07:24:12.015Z,4.39
2019-02-18T07:26:59.884Z,3.88
2019-02-18T07:29:30.790Z,4.45
2019-02-18T07:32:39.924Z,4.51
2019-02-18T07:35:29.123Z,4.56
2019-02-18T07:38:10.842Z,4.65
2019-02-18T07:41:01.261Z,4.73
2019-02-18T07:43:52.281Z,4.82
2019-02-18T07:46:22.788Z,4.91
2019-02-18T07:48:53.345Z,5.01
2019-02-18T07:51:23.597Z,5.09
2019-02-18T07:53:53.818Z,5.15
2019-02-18T07:56:23.959Z,5.20
2019-02-18T08:13:34.933Z,5.43
2019-02-18T08:16:44.117Z,5.55
2019-02-18T08:19:15.756Z,5.63
2019-02-18T08:21:46.309Z,5.77
2019-02-18T08:33:41.637Z,6.18
2019-02-18T08:36:31.902Z,6.26
2019-02-18T08:39:10.844Z,6.34
2019-02-18T08:41:41.343Z,6.45
2019-02-18T08:44:26.201Z,6.47
2019-02-18T08:50:28.941Z,6.67
2019-02-18T08:53:37.579Z,6.78
2019-02-18T08:56:47.063Z,6.89
2019-02-18T09:02:38.083Z,7.11
2019-02-18T09:10:50.882Z,7.58
2019-02-18T09:13:21.186Z,7.68
2019-02-18T09:16:00.128Z,7.80
2019-02-18T09:18:29.099Z,7.94
2019-02-18T09:20:59.537Z,8.10
2019-02-18T09:23:40.710Z,8.20
2019-02-18T09:26:11.741Z,8.32
2019-02-18T09:28:42.009Z,8.47
2019-02-18T09:34:26.010Z,8.95
2019-02-18T09:37:06.952Z,8.95
2019-02-18T09:39:48.291Z,9.11
2019-02-18T09:42:49.099Z,9.11
2019-02-18T09:45:31.213Z,9.27
2019-02-18T09:48:08.011Z,9.39
2019-02-18T09:50:42.467Z,9.51
2019-02-18T09:53:14.525Z,9.61
2019-02-18T09:55:44.888Z,9.71
2019-02-18T09:58:15.315Z,9.83
2019-02-18T10:00:57.027Z,9.99
2019-02-18T10:03:38.559Z,10.11
2019-02-18T10:06:27.681Z,10.17
2019-02-18T10:09:08.808Z,10.28
2019-02-18T10:11:39.311Z,10.46
2019-02-18T10:19:58.183Z,10.80
2019-02-18T10:25:07.850Z,10.61
2019-02-18T10:27:48.235Z,11.23
2019-02-18T10:30:20.790Z,11.36
2019-02-18T10:33:30.775Z,11.50
2019-02-18T10:36:01.310Z,11.62
2019-02-18T10:38:31.901Z,11.75
2019-02-18T10:41:07.013Z,11.88
2019-02-18T10:43:54.944Z,11.98
2019-02-18T10:46:26.457Z,12.05
2019-02-18T10:48:56.876Z,12.17
2019-02-18T10:51:27.496Z,12.33
2019-02-18T10:54:36.653Z,12.47
2019-02-18T10:57:07.022Z,12.53
2019-02-18T10:59:37.452Z,12.66
2019-02-18T11:02:19.245Z,12.78
2019-02-18T11:04:49.747Z,12.86
2019-02-18T11:10:33.601Z,13.04
2019-02-18T11:13:25.014Z,13.21
2019-02-18T11:19:28.272Z,13.45
2019-02-18T11:25:16.743Z,13.73
2019-02-18T11:28:26.687Z,13.81
2019-02-18T11:31:15.801Z,13.96
2019-02-18T11:34:26.656Z,14.08
2019-02-18T11:39:59.955Z,14.25
2019-02-18T11:42:31.006Z,14.38
2019-02-18T11:45:02.356Z,14.48
2019-02-18T11:47:33.077Z,14.51
2019-02-18T11:50:03.660Z,14.61
2019-02-18T11:52:34.336Z,14.70
2019-02-18T11:55:05.072Z,14.84
2019-02-18T11:57:35.620Z,14.96
2019-02-18T12:00:19.444Z,15.03
2019-02-18T12:02:50.473Z,15.13
2019-02-18T12:05:39.691Z,15.27
2019-02-18T12:08:10.721Z,15.28
2019-02-18T12:10:42.078Z,15.37
2019-02-18T12:13:33.026Z,15.40
2019-02-18T12:16:03.835Z,15.51
2019-02-18T12:18:37.041Z,15.58
2019-02-18T12:21:07.583Z,15.70
2019-02-18T12:23:38.974Z,15.79
2019-02-18T12:26:09.371Z,15.89
2019-02-18T12:28:39.875Z,15.94
2019-02-18T12:31:14.210Z,16.00
2019-02-18T12:33:48.254Z,16.01
2019-02-18T12:36:19.572Z,16.01
2019-02-18T12:38:51.930Z,16.03
2019-02-18T12:41:22.894Z,16.08
2019-02-18T12:43:55.281Z,16.17
2019-02-18T12:46:26.019Z,16.20
2019-02-18T12:48:57.114Z,16.25
2019-02-18T12:51:29.193Z,16.36
2019-02-18T12:54:05.003Z,16.44
2019-02-18T12:56:34.863Z,16.46
2019-02-18T12:59:05.099Z,16.55
2019-02-18T13:01:35.853Z,16.66
2019-02-18T13:04:06.430Z,16.74
2019-02-18T13:06:36.989Z,16.83
2019-02-18T13:09:08.288Z,16.91
2019-02-18T13:11:39.366Z,17.00
2019-02-18T13:14:09.798Z,17.06
2019-02-18T13:16:40.317Z,17.12
2019-02-18T13:19:10.813Z,17.20
2019-02-18T13:21:43.541Z,17.23
2019-02-18T13:26:53.455Z,17.37
2019-02-18T13:29:25.759Z,17.41
2019-02-18T13:31:56.833Z,17.39
2019-02-18T13:34:29.984Z,17.45
2019-02-18T13:37:05.299Z,16.97
2019-02-18T13:39:36.758Z,17.46
2019-02-18T13:42:08.028Z,17.47
2019-02-18T13:44:39.092Z,17.51
2019-02-18T13:47:09.991Z,17.52
2019-02-18T13:49:42.106Z,17.48
2019-02-18T13:52:14.007Z,17.51
2019-02-18T14:01:34.123Z,17.62
2019-02-18T14:04:09.405Z,17.67
2019-02-18T14:06:39.437Z,17.20
2019-02-18T14:12:53.553Z,17.72
2019-02-18T14:22:13.815Z,17.82
2019-02-18T14:24:44.661Z,17.71
2019-02-18T14:27:15.233Z,17.72
2019-02-18T14:30:23.117Z,17.79
2019-02-18T14:32:53.538Z,17.84
2019-02-18T14:35:24.156Z,17.81
2019-02-18T14:37:57.768Z,17.78
2019-02-18T14:40:48.458Z,17.82
2019-02-18T14:43:25.052Z,17.86
2019-02-18T14:46:15.742Z,17.83
2019-02-18T14:48:58.655Z,17.79
2019-02-18T14:51:48.701Z,17.74
2019-02-18T14:54:20.566Z,17.69
2019-02-18T14:57:04.324Z,17.10
2019-02-18T15:02:24.804Z,17.14
2019-02-18T15:08:22.916Z,16.78
2019-02-18T15:10:53.823Z,16.68
2019-02-18T15:16:29.530Z,16.37
2019-02-18T15:19:03.665Z,16.29
2019-02-18T15:21:38.535Z,16.20
2019-02-18T15:24:12.298Z,16.15
2019-02-18T15:26:44.155Z,16.19
2019-02-18T15:29:17.088Z,16.23
2019-02-18T15:31:48.279Z,16.31
2019-02-18T15:34:21.757Z,16.37
2019-02-18T15:36:52.213Z,16.22
2019-02-18T15:39:31.255Z,16.02
2019-02-18T15:42:07.275Z,15.81
2019-02-18T15:44:41.977Z,15.63
2019-02-18T15:47:23.376Z,15.46
2019-02-18T15:49:57.037Z,15.31
2019-02-18T15:52:34.611Z,15.10
2019-02-18T15:55:19.284Z,14.96
2019-02-18T15:58:08.726Z,14.80
2019-02-18T16:00:52.790Z,14.59
2019-02-18T16:03:43.394Z,14.39
2019-02-18T16:06:54.624Z,14.20
2019-02-18T16:09:37.087Z,14.05
2019-02-18T16:12:09.147Z,13.79
2019-02-18T16:27:09.812Z,12.75
2019-02-18T16:30:05.834Z,12.58
2019-02-18T16:33:15.111Z,12.48
2019-02-18T16:35:53.835Z,12.25
2019-02-18T16:38:31.374Z,12.06
2019-02-18T16:41:04.533Z,11.92
2019-02-18T16:43:39.830Z,11.83
2019-02-18T16:46:12.309Z,11.66
2019-02-18T16:48:43.422Z,11.56
2019-02-18T16:51:22.043Z,11.52
2019-02-18T16:53:53.407Z,11.57
2019-02-18T16:56:25.787Z,11.63
2019-02-18T16:59:03.445Z,11.76
2019-02-18T17:01:37.529Z,11.87
2019-02-18T17:04:08.836Z,11.94
2019-02-18T17:06:40.553Z,12.02
2019-02-18T17:09:15.559Z,12.06
2019-02-18T17:11:48.377Z,12.03
2019-02-18T17:14:19.920Z,12.03
2019-02-18T17:16:50.563Z,12.06
2019-02-18T17:19:21.002Z,11.53
2019-02-18T17:21:52.273Z,12.07
2019-02-18T17:24:22.926Z,12.03
2019-02-18T17:26:54.162Z,11.99
2019-02-18T17:29:27.524Z,11.96
2019-02-18T17:31:55.650Z,11.42
2019-02-18T17:34:26.540Z,11.86
2019-02-18T17:36:59.134Z,11.86
2019-02-18T17:39:40.460Z,11.82
2019-02-18T17:42:30.190Z,11.77
2019-02-18T17:45:02.837Z,11.69
2019-02-18T17:47:34.057Z,11.65
2019-02-18T17:50:05.357Z,11.61
2019-02-18T17:52:36.846Z,11.53
2019-02-18T17:55:08.317Z,11.48
2019-02-18T17:57:39.062Z,11.40
2019-02-18T18:00:14.995Z,11.38
2019-02-18T18:02:45.751Z,11.32
2019-02-18T18:05:16.785Z,11.34
2019-02-18T18:07:47.835Z,11.34
2019-02-18T18:10:18.612Z,11.33
2019-02-18T18:12:49.032Z,11.30
2019-02-18T18:15:19.676Z,11.25
2019-02-18T18:17:50.026Z,11.23
2019-02-18T18:20:20.580Z,11.16
2019-02-18T18:22:50.908Z,11.07
2019-02-18T18:25:21.125Z,10.99
2019-02-18T18:27:51.404Z,10.91
2019-02-18T18:30:21.977Z,10.85
2019-02-18T18:32:52.282Z,10.76
2019-02-18T18:35:22.821Z,10.74
2019-02-18T18:38:32.426Z,10.68
2019-02-18T18:47:24.354Z,10.61
2019-02-18T18:52:59.066Z,10.56
2019-02-18T18:55:29.243Z,10.51
2019-02-18T18:58:02.239Z,10.44
2019-02-18T19:00:34.611Z,10.49
2019-02-18T19:03:05.422Z,10.51
2019-02-18T19:05:35.709Z,10.54
2019-02-18T19:08:06.388Z,10.57
2019-02-18T19:10:36.862Z,10.60
2019-02-18T19:13:10.859Z,10.62
2019-02-18T19:15:49.294Z,10.64
2019-02-18T19:18:17.608Z,10.66
2019-02-18T19:20:51.304Z,10.65
2019-02-18T19:23:33.791Z,10.59
2019-02-18T19:26:04.468Z,10.54
2019-02-18T19:40:28.699Z,10.08
2019-02-18T19:43:00.350Z,9.98
2019-02-18T19:45:32.038Z,9.90
2019-02-18T19:48:03.780Z,9.81
2019-02-18T19:50:35.245Z,9.75
2019-02-18T19:53:08.154Z,9.64
2019-02-18T19:55:40.650Z,9.54
2019-02-18T19:58:14.089Z,9.46
2019-02-18T20:01:15.805Z,9.35
2019-02-18T20:09:50.069Z,9.55
2019-02-18T20:12:20.754Z,9.77
2019-02-18T20:14:52.015Z,9.83
2019-02-18T20:17:22.730Z,9.92
2019-02-18T20:19:53.571Z,10.05
2019-02-18T20:22:25.582Z,10.08
2019-02-18T20:28:17.091Z,10.08
2019-02-18T20:30:48.274Z,10.06
2019-02-18T20:39:07.119Z,10.02
2019-02-18T20:42:17.050Z,9.95
2019-02-18T20:44:49.598Z,9.85
2019-02-18T20:47:41.124Z,9.77
2019-02-18T20:50:31.809Z,9.71
2019-02-18T20:53:04.435Z,9.46
2019-02-18T20:55:35.780Z,9.55
2019-02-18T20:58:06.938Z,9.54
2019-02-18T21:12:46.279Z,9.16
2019-02-18T21:24:07.423Z,8.99
2019-02-18T21:26:57.446Z,8.99
2019-02-18T21:29:30.602Z,9.03
2019-02-18T21:46:56.210Z,8.91
2019-02-18T21:52:37.697Z,8.54
2019-02-18T21:57:57.071Z,8.41
2019-02-18T22:00:33.541Z,8.41
2019-02-18T22:03:05.610Z,7.96
2019-02-18T22:05:35.957Z,7.96
2019-02-18T22:08:07.333Z,8.16
2019-02-18T22:14:03.609Z,7.98
2019-02-18T22:16:35.961Z,7.87
2019-02-18T22:19:06.926Z,7.75
2019-02-18T22:21:37.886Z,7.68
2019-02-18T22:24:27.611Z,7.60
2019-02-18T22:33:22.067Z,7.41
2019-02-18T22:35:53.608Z,7.34
2019-02-18T22:38:27.242Z,7.27
2019-02-18T22:40:58.911Z,7.21
2019-02-18T22:43:31.164Z,6.58
2019-02-18T22:46:03.467Z,7.11
2019-02-18T22:48:35.318Z,7.05
2019-02-18T22:51:09.276Z,7.00
2019-02-18T22:53:41.177Z,6.94
2019-02-18T22:56:13.481Z,6.90
2019-02-18T23:04:37.267Z,6.82
2019-02-18T23:07:19.729Z,6.87
2019-02-18T23:10:09.762Z,6.88
2019-02-18T23:15:51.377Z,6.79
2019-02-18T23:18:34.772Z,6.74
2019-02-18T23:24:26.242Z,6.68
2019-02-18T23:27:35.703Z,6.61
2019-02-18T23:30:09.857Z,6.46
2019-02-18T23:32:59.096Z,6.54
2019-02-18T23:35:30.532Z,6.53
2019-02-18T23:38:39.743Z,6.46
2019-02-18T23:55:01.934Z,6.56
2019-02-18T23:57:32.368Z,5.96
